Terminal Aerodrome Forecast
Issued by NWS

Home | Current Version | Previous Version | Text Only | Print | Product List | Glossary On
Versions: 1 2 3 4 5 6 7 8 9 10 11 12 13 14 15 16 17 18 19 20
000
FTUS42 KGSP 170537
TAFGMU
TAF
KGMU 170537Z 1706/1806 00000KT P6SM FEW060
     FM170900 VRB02KT 6SM BR SCT150
     FM171300 20003KT P6SM FEW150
     FM171600 23007KT P6SM SCT060 PROB30 1719/1724 4SM -TSRA
      BKN040CB
     FM180200 23003KT P6SM FEW060 SCT150=

USA.gov is the U.S. government's official web portal to all federal, state and local government web resources and services.